createdAt,value
2023-03-16T00:01:55.523Z,21.97
2023-03-16T00:04:21.927Z,21.92
2023-03-16T00:06:48.236Z,21.94
2023-03-16T00:09:14.614Z,21.97
2023-03-16T00:11:40.962Z,21.96
2023-03-16T00:14:07.279Z,21.98
2023-03-16T00:16:33.721Z,21.96
2023-03-16T00:19:00.120Z,21.95
2023-03-16T00:21:26.571Z,21.92
2023-03-16T00:23:53.027Z,21.89
2023-03-16T00:26:19.457Z,21.90
2023-03-16T00:28:45.807Z,21.96
2023-03-16T00:31:12.139Z,21.92
2023-03-16T00:33:38.481Z,21.92
2023-03-16T00:36:04.865Z,21.96
2023-03-16T00:38:31.230Z,21.94
2023-03-16T00:40:57.605Z,21.97
2023-03-16T00:43:23.996Z,21.94
2023-03-16T00:45:50.417Z,21.91
2023-03-16T00:48:16.805Z,21.90
2023-03-16T00:50:43.184Z,21.89
2023-03-16T00:53:09.645Z,21.90
2023-03-16T00:55:36.015Z,21.92
2023-03-16T00:58:02.342Z,21.88
2023-03-16T01:00:29.297Z,21.89
2023-03-16T01:02:55.830Z,21.89
2023-03-16T01:05:22.160Z,21.86
2023-03-16T01:07:48.909Z,21.90
2023-03-16T01:10:15.273Z,21.90
2023-03-16T01:12:41.638Z,21.88
2023-03-16T01:15:08.023Z,21.92
2023-03-16T01:17:34.417Z,21.82
2023-03-16T01:20:00.789Z,21.88
2023-03-16T01:22:27.160Z,21.86
2023-03-16T01:24:53.541Z,21.85
2023-03-16T01:27:19.850Z,21.90
2023-03-16T01:29:46.321Z,21.85
2023-03-16T01:32:12.713Z,21.78
2023-03-16T01:34:39.032Z,21.89
2023-03-16T01:37:05.408Z,21.85
2023-03-16T01:39:31.769Z,21.94
2023-03-16T01:41:58.128Z,21.90
2023-03-16T01:44:24.521Z,21.83
2023-03-16T01:46:50.882Z,21.87
2023-03-16T01:49:17.262Z,21.82
2023-03-16T01:51:43.585Z,21.86
2023-03-16T01:54:09.904Z,21.88
2023-03-16T01:56:36.208Z,21.83
2023-03-16T01:59:02.579Z,21.85
2023-03-16T02:01:29.030Z,21.89
2023-03-16T02:03:55.538Z,21.85
2023-03-16T02:06:21.947Z,21.88
2023-03-16T02:08:48.311Z,21.85
2023-03-16T02:11:14.650Z,21.90
2023-03-16T02:13:40.945Z,21.85
2023-03-16T02:16:07.374Z,21.84
2023-03-16T02:18:33.806Z,21.88
2023-03-16T02:21:00.211Z,21.85
2023-03-16T02:23:26.537Z,21.92
2023-03-16T02:25:52.911Z,21.84
2023-03-16T02:28:19.277Z,21.85
2023-03-16T02:30:45.654Z,21.83
2023-03-16T02:33:12.090Z,21.81
2023-03-16T02:35:38.430Z,21.84
2023-03-16T02:38:04.830Z,21.85
2023-03-16T02:40:31.227Z,21.84
2023-03-16T02:42:57.546Z,21.85
2023-03-16T02:45:23.969Z,21.84
2023-03-16T02:47:50.327Z,21.80
2023-03-16T02:50:16.708Z,21.84
2023-03-16T02:52:43.069Z,21.84
2023-03-16T02:55:09.419Z,21.81
2023-03-16T02:57:35.743Z,21.84
2023-03-16T03:00:02.061Z,21.78
2023-03-16T03:02:28.361Z,21.86
2023-03-16T03:04:54.734Z,21.79
2023-03-16T03:07:21.054Z,21.78
2023-03-16T03:09:47.425Z,21.84
2023-03-16T03:12:13.742Z,21.88
2023-03-16T03:14:40.057Z,21.84
2023-03-16T03:17:06.426Z,21.85
2023-03-16T03:19:32.822Z,21.84
2023-03-16T03:21:59.167Z,21.87
2023-03-16T03:24:25.516Z,21.82
2023-03-16T03:26:51.873Z,21.85
2023-03-16T03:29:18.256Z,21.77
2023-03-16T03:31:44.712Z,21.83
2023-03-16T03:34:11.101Z,21.85
2023-03-16T03:36:37.431Z,21.84
2023-03-16T03:39:03.788Z,21.86
2023-03-16T03:41:30.147Z,21.78
2023-03-16T03:43:56.516Z,21.78
2023-03-16T03:46:23.075Z,21.81
2023-03-16T03:48:49.537Z,21.79
2023-03-16T03:51:16.254Z,21.82
2023-03-16T03:53:42.606Z,21.80
2023-03-16T03:56:08.995Z,21.88
2023-03-16T03:58:35.313Z,21.75
2023-03-16T04:01:01.697Z,21.79
2023-03-16T04:03:28.101Z,21.75
2023-03-16T04:05:54.566Z,21.82
2023-03-16T04:08:20.944Z,21.82
2023-03-16T04:10:47.306Z,21.82
2023-03-16T04:13:13.646Z,21.82
2023-03-16T04:15:40.031Z,21.78
2023-03-16T04:18:06.390Z,21.77
2023-03-16T04:20:32.728Z,21.77
2023-03-16T04:22:59.096Z,21.82
2023-03-16T04:25:25.460Z,21.77
2023-03-16T04:27:51.803Z,21.82
2023-03-16T04:30:18.158Z,21.74
2023-03-16T04:32:44.540Z,21.71
2023-03-16T04:35:10.918Z,21.62
2023-03-16T04:37:37.226Z,21.53
2023-03-16T04:40:03.534Z,21.66
2023-03-16T04:42:29.884Z,21.61
2023-03-16T04:44:56.194Z,21.58
2023-03-16T04:47:22.534Z,21.70
2023-03-16T04:49:48.904Z,21.54
2023-03-16T04:52:15.218Z,21.60
2023-03-16T04:54:41.558Z,21.60
2023-03-16T04:57:07.948Z,21.61
2023-03-16T04:59:34.294Z,21.61
2023-03-16T05:02:00.651Z,21.58
2023-03-16T05:04:26.998Z,21.54
2023-03-16T05:06:53.416Z,21.64
2023-03-16T05:09:19.788Z,21.59
2023-03-16T05:11:46.162Z,21.60
2023-03-16T05:14:12.487Z,21.65
2023-03-16T05:16:38.795Z,21.58
2023-03-16T05:19:05.204Z,21.67
2023-03-16T05:21:31.533Z,21.61
2023-03-16T05:23:57.838Z,21.71
2023-03-16T05:26:24.221Z,21.65
2023-03-16T05:28:50.613Z,21.75
2023-03-16T05:31:17.036Z,21.57
2023-03-16T05:33:43.437Z,21.66
2023-03-16T05:36:09.820Z,21.71
2023-03-16T05:38:36.178Z,21.59
2023-03-16T05:41:05.250Z,21.67
2023-03-16T05:43:32.112Z,21.59
2023-03-16T05:45:58.474Z,21.73
2023-03-16T05:48:24.842Z,21.71
2023-03-16T05:50:51.180Z,21.60
2023-03-16T05:53:17.563Z,21.54
2023-03-16T05:55:43.963Z,21.56
2023-03-16T05:58:10.328Z,21.56
2023-03-16T06:00:36.665Z,21.72
2023-03-16T06:03:03.093Z,21.74
2023-03-16T06:05:29.471Z,21.89
2023-03-16T06:07:55.841Z,21.85
2023-03-16T06:10:22.243Z,21.86
2023-03-16T06:12:48.671Z,22.02
2023-03-16T06:15:15.025Z,21.98
2023-03-16T06:17:41.412Z,22.04
2023-03-16T06:20:07.843Z,22.09
2023-03-16T06:22:34.194Z,21.95
2023-03-16T06:25:00.491Z,21.97
2023-03-16T06:27:26.884Z,21.86
2023-03-16T06:29:53.242Z,21.98
2023-03-16T06:32:19.639Z,22.07
2023-03-16T06:34:46.028Z,21.97
2023-03-16T06:37:12.408Z,21.90
2023-03-16T06:39:38.787Z,22.11
2023-03-16T06:42:05.125Z,22.12
2023-03-16T06:44:31.494Z,22.08
2023-03-16T06:46:57.807Z,22.21
2023-03-16T06:49:24.147Z,22.21
2023-03-16T06:51:50.477Z,22.15
2023-03-16T06:54:16.782Z,22.15
2023-03-16T06:56:44.266Z,22.20
2023-03-16T06:59:11.620Z,22.23
2023-03-16T07:01:37.996Z,22.17
2023-03-16T07:04:04.384Z,22.32
2023-03-16T07:06:30.750Z,22.26
2023-03-16T07:08:57.065Z,22.27
2023-03-16T07:11:23.395Z,22.32
2023-03-16T07:13:49.806Z,22.24
2023-03-16T07:16:16.181Z,22.21
2023-03-16T07:18:42.517Z,22.22
2023-03-16T07:21:08.936Z,22.33
2023-03-16T07:23:35.229Z,22.18
2023-03-16T07:26:01.562Z,22.22
2023-03-16T07:28:27.879Z,22.27
2023-03-16T07:31:03.265Z,22.26
2023-03-16T07:33:30.601Z,22.36
2023-03-16T07:35:56.972Z,22.37
2023-03-16T07:38:23.293Z,22.41
2023-03-16T07:40:49.626Z,22.35
2023-03-16T07:43:16.015Z,22.48
2023-03-16T07:45:42.501Z,22.46
2023-03-16T07:48:08.873Z,22.26
2023-03-16T07:50:35.213Z,22.31
2023-03-16T07:53:01.577Z,22.38
2023-03-16T07:55:27.904Z,22.36
2023-03-16T07:57:54.240Z,22.55
2023-03-16T08:00:20.607Z,22.47
2023-03-16T08:02:47.125Z,22.34
2023-03-16T08:05:13.529Z,22.35
2023-03-16T08:07:39.845Z,22.29
2023-03-16T08:10:06.176Z,22.29
2023-03-16T08:12:32.536Z,22.25
2023-03-16T08:14:58.943Z,22.33
2023-03-16T08:17:25.271Z,22.27
2023-03-16T08:19:51.606Z,22.43
2023-03-16T08:22:17.992Z,22.29
2023-03-16T08:24:44.360Z,22.39
2023-03-16T08:27:10.725Z,22.34
2023-03-16T08:29:37.083Z,22.66
2023-03-16T08:32:03.527Z,22.72
2023-03-16T08:34:29.835Z,22.77
2023-03-16T08:36:56.195Z,22.78
2023-03-16T08:39:22.564Z,22.91
2023-03-16T08:41:48.986Z,22.94
2023-03-16T08:44:15.452Z,22.74
2023-03-16T08:46:41.794Z,22.86
2023-03-16T08:49:08.201Z,22.92
2023-03-16T08:51:34.604Z,23.00
2023-03-16T08:54:01.019Z,22.96
2023-03-16T08:56:27.364Z,22.85
2023-03-16T08:58:53.683Z,23.05
2023-03-16T09:01:20.090Z,23.23
2023-03-16T09:03:46.516Z,23.27
2023-03-16T09:06:12.952Z,23.22
2023-03-16T09:08:39.281Z,23.21
2023-03-16T09:11:05.659Z,23.22
2023-03-16T09:13:31.961Z,23.17
2023-03-16T09:15:58.374Z,23.35
2023-03-16T09:18:24.701Z,23.30
2023-03-16T09:20:51.061Z,23.33
2023-03-16T09:23:17.466Z,23.31
2023-03-16T09:25:43.848Z,23.29
2023-03-16T09:28:10.193Z,23.41
2023-03-16T09:30:36.531Z,23.44
2023-03-16T09:33:02.897Z,23.41
2023-03-16T09:35:29.504Z,23.22
2023-03-16T09:38:05.545Z,23.15
2023-03-16T09:40:32.515Z,23.09
2023-03-16T09:42:58.884Z,23.17
2023-03-16T09:45:25.213Z,23.17
2023-03-16T09:47:51.534Z,23.32
2023-03-16T09:50:17.996Z,23.20
2023-03-16T09:52:44.418Z,23.15
2023-03-16T09:55:10.739Z,23.12
2023-03-16T09:57:37.112Z,23.11
2023-03-16T10:00:03.504Z,23.10
2023-03-16T10:02:29.928Z,23.23
2023-03-16T10:04:56.289Z,23.21
2023-03-16T10:07:22.628Z,23.06
2023-03-16T10:09:48.928Z,23.11
2023-03-16T10:12:15.267Z,23.24
2023-03-16T10:14:41.658Z,23.27
2023-03-16T10:17:08.274Z,23.27
2023-03-16T10:19:34.733Z,23.35
2023-03-16T10:22:01.135Z,23.33
2023-03-16T10:24:27.625Z,23.26
2023-03-16T10:26:54.249Z,23.29
2023-03-16T10:29:20.699Z,23.15
2023-03-16T10:31:47.284Z,23.19
2023-03-16T10:34:13.681Z,23.27
2023-03-16T10:36:40.093Z,23.36
2023-03-16T10:39:06.491Z,23.42
2023-03-16T10:41:32.972Z,23.50
2023-03-16T10:43:59.293Z,23.34
2023-03-16T10:46:25.696Z,23.30
2023-03-16T10:48:52.183Z,23.26
2023-03-16T10:51:18.513Z,23.43
2023-03-16T10:53:44.913Z,23.12
2023-03-16T10:56:11.248Z,23.30
2023-03-16T10:58:37.565Z,23.39
2023-03-16T11:01:03.915Z,23.46
2023-03-16T11:03:30.244Z,23.23
2023-03-16T11:05:56.576Z,23.10
2023-03-16T11:08:22.928Z,23.34
2023-03-16T11:10:55.948Z,23.53
2023-03-16T11:13:22.584Z,23.67
2023-03-16T11:15:48.990Z,23.46
2023-03-16T11:18:15.454Z,23.58
2023-03-16T11:20:41.808Z,23.69
2023-03-16T11:23:08.191Z,23.55
2023-03-16T11:25:34.550Z,23.53
2023-03-16T11:28:00.865Z,23.53
2023-03-16T11:30:27.185Z,23.61
2023-03-16T11:32:53.601Z,23.35
2023-03-16T11:35:20.157Z,23.32
2023-03-16T11:37:46.518Z,23.30
2023-03-16T11:40:12.896Z,23.40
2023-03-16T11:42:39.294Z,23.45
2023-03-16T11:45:05.652Z,23.42
2023-03-16T11:47:31.982Z,23.31
2023-03-16T11:49:58.328Z,23.23
2023-03-16T11:52:24.655Z,23.41
2023-03-16T11:54:50.995Z,23.48
2023-03-16T11:57:17.363Z,23.30
2023-03-16T11:59:48.959Z,23.39
2023-03-16T12:02:18.521Z,23.28
2023-03-16T12:04:44.928Z,23.36
2023-03-16T12:07:11.280Z,23.21
2023-03-16T12:09:37.607Z,23.34
2023-03-16T12:12:03.938Z,23.13
2023-03-16T12:14:30.370Z,23.12
2023-03-16T12:16:56.770Z,23.20
2023-03-16T12:19:23.160Z,23.34
2023-03-16T12:21:49.628Z,23.43
2023-03-16T12:24:16.004Z,23.56
2023-03-16T12:26:42.716Z,23.39
2023-03-16T12:29:09.140Z,23.39
2023-03-16T12:31:35.494Z,23.22
2023-03-16T12:34:01.888Z,23.35
2023-03-16T12:36:28.215Z,23.34
2023-03-16T12:38:54.597Z,23.20
2023-03-16T12:41:20.910Z,23.15
2023-03-16T12:43:47.230Z,23.13
2023-03-16T12:46:13.702Z,23.24
2023-03-16T12:48:40.040Z,23.08
2023-03-16T12:51:06.353Z,23.12
2023-03-16T12:53:32.760Z,23.19
2023-03-16T12:55:59.186Z,23.12
2023-03-16T12:58:25.739Z,23.05
2023-03-16T13:00:52.244Z,23.08
2023-03-16T13:03:18.780Z,23.09
2023-03-16T13:05:45.268Z,23.17
2023-03-16T13:08:12.015Z,23.13
2023-03-16T13:10:38.585Z,23.17
2023-03-16T13:13:04.977Z,23.18
2023-03-16T13:15:31.312Z,23.12
2023-03-16T13:17:57.644Z,23.16
2023-03-16T13:20:30.233Z,23.29
2023-03-16T13:22:57.402Z,23.27
2023-03-16T13:25:23.745Z,23.23
2023-03-16T13:27:50.112Z,23.18
2023-03-16T13:30:16.518Z,23.22
2023-03-16T13:32:42.911Z,23.23
2023-03-16T13:35:09.317Z,23.20
2023-03-16T13:37:35.666Z,23.21
2023-03-16T13:40:02.008Z,23.20
2023-03-16T13:42:28.497Z,23.16
2023-03-16T13:44:54.896Z,23.11
2023-03-16T13:47:21.274Z,23.17
2023-03-16T13:49:47.654Z,23.11
2023-03-16T13:52:14.077Z,23.15
2023-03-16T13:54:40.424Z,23.19
2023-03-16T13:57:06.738Z,22.90
2023-03-16T13:59:33.052Z,23.11
2023-03-16T14:01:59.392Z,23.13
2023-03-16T14:04:25.768Z,23.16
2023-03-16T14:06:52.152Z,23.19
2023-03-16T14:09:18.522Z,23.11
2023-03-16T14:11:44.839Z,23.11
2023-03-16T14:14:11.141Z,23.00
2023-03-16T14:16:37.577Z,23.08
2023-03-16T14:19:03.921Z,22.95
2023-03-16T14:21:30.266Z,22.94
2023-03-16T14:23:56.647Z,23.08
2023-03-16T14:26:24.112Z,23.01
2023-03-16T14:28:50.483Z,22.98
2023-03-16T14:31:16.957Z,23.05
2023-03-16T14:33:43.286Z,23.02
2023-03-16T14:36:09.716Z,22.95
2023-03-16T14:38:36.068Z,22.99
2023-03-16T14:41:02.387Z,22.99
2023-03-16T14:43:28.743Z,22.94
2023-03-16T14:45:55.175Z,22.99
2023-03-16T14:48:21.669Z,23.01
2023-03-16T14:50:48.040Z,22.94
2023-03-16T14:53:14.496Z,22.95
2023-03-16T14:55:40.872Z,23.05
2023-03-16T14:58:07.184Z,23.02
2023-03-16T15:00:42.800Z,22.82
2023-03-16T15:03:12.785Z,22.88
2023-03-16T15:05:39.192Z,22.97
2023-03-16T15:08:05.530Z,22.87
2023-03-16T15:10:32.037Z,22.89
2023-03-16T15:12:58.355Z,22.86
2023-03-16T15:15:24.662Z,22.77
2023-03-16T15:17:51.036Z,22.69
2023-03-16T15:20:17.413Z,22.68
2023-03-16T15:22:43.771Z,22.83
2023-03-16T15:25:10.180Z,22.70
2023-03-16T15:27:36.545Z,22.71
2023-03-16T15:30:02.904Z,22.76
2023-03-16T15:32:29.320Z,22.74
2023-03-16T15:34:55.705Z,22.76
2023-03-16T15:37:22.089Z,22.82
2023-03-16T15:39:48.404Z,22.77
2023-03-16T15:42:14.765Z,22.80
2023-03-16T15:44:41.099Z,22.79
2023-03-16T15:47:07.410Z,22.81
2023-03-16T15:49:46.674Z,22.73
2023-03-16T15:52:13.744Z,22.62
2023-03-16T15:54:40.048Z,22.55
2023-03-16T15:57:06.385Z,22.66
2023-03-16T15:59:32.777Z,22.74
2023-03-16T16:01:59.093Z,22.72
2023-03-16T16:04:25.439Z,22.69
2023-03-16T16:06:51.824Z,22.76
2023-03-16T16:09:18.181Z,22.74
2023-03-16T16:11:44.518Z,22.65
2023-03-16T16:14:10.884Z,22.59
2023-03-16T16:16:37.475Z,22.59
2023-03-16T16:19:03.868Z,22.56
2023-03-16T16:21:30.225Z,22.54
2023-03-16T16:23:56.624Z,22.57
2023-03-16T16:26:23.013Z,22.51
2023-03-16T16:28:49.377Z,22.45
2023-03-16T16:31:15.823Z,22.46
2023-03-16T16:33:42.171Z,22.56
2023-03-16T16:36:08.488Z,22.53
2023-03-16T16:38:34.802Z,22.47
2023-03-16T16:41:01.202Z,22.42
2023-03-16T16:43:27.587Z,22.45
2023-03-16T16:45:54.022Z,22.50
2023-03-16T16:48:20.377Z,22.45
2023-03-16T16:50:46.783Z,22.44
2023-03-16T16:53:13.162Z,22.55
2023-03-16T16:55:41.924Z,22.35
2023-03-16T16:58:18.552Z,22.30
2023-03-16T17:00:50.055Z,22.30
2023-03-16T17:03:16.532Z,22.34
2023-03-16T17:05:42.873Z,22.33
2023-03-16T17:08:09.186Z,22.51
2023-03-16T17:10:35.530Z,22.44
2023-03-16T17:13:01.897Z,22.48
2023-03-16T17:15:28.591Z,22.31
2023-03-16T17:17:55.092Z,22.47
2023-03-16T17:20:21.417Z,22.46
2023-03-16T17:22:47.882Z,22.49
2023-03-16T17:25:14.194Z,22.48
2023-03-16T17:27:40.537Z,22.58
2023-03-16T17:30:07.031Z,22.57
2023-03-16T17:32:33.351Z,22.54
2023-03-16T17:34:59.755Z,22.31
2023-03-16T17:37:26.075Z,22.51
2023-03-16T17:39:52.404Z,22.61
2023-03-16T17:42:18.815Z,22.48
2023-03-16T17:44:45.176Z,22.58
2023-03-16T17:47:11.500Z,22.53
2023-03-16T17:49:37.869Z,22.62
2023-03-16T17:52:04.189Z,22.55
2023-03-16T17:54:30.503Z,22.59
2023-03-16T17:56:56.883Z,22.50
2023-03-16T17:59:23.278Z,22.58
2023-03-16T18:01:49.708Z,22.55
2023-03-16T18:04:16.118Z,22.55
2023-03-16T18:06:42.507Z,22.56
2023-03-16T18:09:08.825Z,22.57
2023-03-16T18:11:35.132Z,22.57
2023-03-16T18:14:01.495Z,22.55
2023-03-16T18:16:28.048Z,22.56
2023-03-16T18:18:54.475Z,22.53
2023-03-16T18:21:20.839Z,22.52
2023-03-16T18:23:47.188Z,22.52
2023-03-16T18:26:13.499Z,22.53
2023-03-16T18:28:39.816Z,22.54
2023-03-16T18:31:06.172Z,22.54
2023-03-16T18:33:32.593Z,22.53
2023-03-16T18:35:58.971Z,22.48
2023-03-16T18:38:25.476Z,22.49
2023-03-16T18:40:51.821Z,22.48
2023-03-16T18:43:18.164Z,22.48
2023-03-16T18:45:44.557Z,22.45
2023-03-16T18:48:10.891Z,22.47
2023-03-16T18:50:37.246Z,22.50
2023-03-16T18:53:03.639Z,22.50
2023-03-16T18:55:30.101Z,22.52
2023-03-16T18:57:56.625Z,22.51
2023-03-16T19:00:22.981Z,22.46
2023-03-16T19:02:49.456Z,22.48
2023-03-16T19:05:15.779Z,22.50
2023-03-16T19:07:42.119Z,22.45
2023-03-16T19:10:08.490Z,22.47
2023-03-16T19:12:34.868Z,22.48
2023-03-16T19:15:01.176Z,22.48
2023-03-16T19:17:27.499Z,22.49
2023-03-16T19:19:53.783Z,22.42
2023-03-16T19:22:20.076Z,22.38
2023-03-16T19:24:46.410Z,22.50
2023-03-16T19:27:12.729Z,22.54
2023-03-16T19:29:39.072Z,22.52
2023-03-16T19:32:05.601Z,22.50
2023-03-16T19:34:31.938Z,22.46
2023-03-16T19:36:58.292Z,22.46
2023-03-16T19:39:24.669Z,22.48
2023-03-16T19:41:51.031Z,22.46
2023-03-16T19:44:17.353Z,22.47
2023-03-16T19:46:43.703Z,22.42
2023-03-16T19:49:10.083Z,22.39
2023-03-16T19:51:36.398Z,22.42
2023-03-16T19:54:02.837Z,22.45
2023-03-16T19:56:29.237Z,22.47
2023-03-16T19:58:55.614Z,22.49
2023-03-16T20:01:22.151Z,22.45
2023-03-16T20:03:48.584Z,22.52
2023-03-16T20:06:14.978Z,22.45
2023-03-16T20:08:41.323Z,22.42
2023-03-16T20:11:07.645Z,22.42
2023-03-16T20:13:33.999Z,22.40
2023-03-16T20:16:00.380Z,22.40
2023-03-16T20:18:26.692Z,22.44
2023-03-16T20:20:52.996Z,22.41
2023-03-16T20:23:19.392Z,22.40
2023-03-16T20:25:45.714Z,22.48
2023-03-16T20:28:12.008Z,22.42
2023-03-16T20:30:38.483Z,22.45
2023-03-16T20:33:04.869Z,22.22
2023-03-16T20:35:31.831Z,22.42
2023-03-16T20:37:58.513Z,22.43
2023-03-16T20:40:24.846Z,22.39
2023-03-16T20:42:51.215Z,22.41
2023-03-16T20:45:17.589Z,22.34
2023-03-16T20:47:43.955Z,22.42
2023-03-16T20:50:10.267Z,22.45
2023-03-16T20:52:36.614Z,22.48
2023-03-16T20:55:02.955Z,22.47
2023-03-16T20:57:29.332Z,22.44
2023-03-16T20:59:55.717Z,22.37
2023-03-16T21:02:22.075Z,22.43
2023-03-16T21:04:48.457Z,22.43
2023-03-16T21:07:14.834Z,22.48
2023-03-16T21:09:45.343Z,22.45
2023-03-16T21:12:16.237Z,22.39
2023-03-16T21:14:42.626Z,22.33
2023-03-16T21:17:08.952Z,22.30
2023-03-16T21:19:35.309Z,22.30
2023-03-16T21:22:01.681Z,22.39
2023-03-16T21:24:28.060Z,22.43
2023-03-16T21:26:54.392Z,22.35
2023-03-16T21:29:20.737Z,22.41
2023-03-16T21:31:47.097Z,22.41
2023-03-16T21:34:13.494Z,22.40
2023-03-16T21:36:39.843Z,22.34
2023-03-16T21:39:06.220Z,22.43
2023-03-16T21:41:32.560Z,22.36
2023-03-16T21:43:58.935Z,22.37
2023-03-16T21:46:25.252Z,22.40
2023-03-16T21:48:51.605Z,22.34
2023-03-16T21:51:17.923Z,22.36
2023-03-16T21:53:44.240Z,22.38
2023-03-16T21:56:10.581Z,22.32
2023-03-16T21:58:36.961Z,22.38
2023-03-16T22:01:03.366Z,22.28
2023-03-16T22:03:40.844Z,22.33
2023-03-16T22:06:16.016Z,22.35
2023-03-16T22:08:42.339Z,22.43
2023-03-16T22:11:08.688Z,22.42
2023-03-16T22:13:35.125Z,22.30
2023-03-16T22:16:01.435Z,22.30
2023-03-16T22:18:27.749Z,22.21
2023-03-16T22:20:54.064Z,22.33
2023-03-16T22:23:20.376Z,22.36
2023-03-16T22:25:46.727Z,22.36
2023-03-16T22:28:13.070Z,22.31
2023-03-16T22:30:39.456Z,22.38
2023-03-16T22:33:05.860Z,22.24
2023-03-16T22:35:32.259Z,22.34
2023-03-16T22:37:58.617Z,22.28
2023-03-16T22:40:24.992Z,22.27
2023-03-16T22:42:51.362Z,22.25
2023-03-16T22:45:17.712Z,22.38
2023-03-16T22:47:44.088Z,22.37
2023-03-16T22:50:10.413Z,22.41
2023-03-16T22:52:36.721Z,22.26
2023-03-16T22:55:03.080Z,22.20
2023-03-16T22:57:29.439Z,22.20
2023-03-16T22:59:55.849Z,22.19
2023-03-16T23:02:22.290Z,22.24
2023-03-16T23:04:48.628Z,22.22
2023-03-16T23:07:15.005Z,22.20
2023-03-16T23:09:41.387Z,22.25
2023-03-16T23:12:07.701Z,22.17
2023-03-16T23:14:34.052Z,22.09
2023-03-16T23:17:00.367Z,22.23
2023-03-16T23:19:26.793Z,22.26
2023-03-16T23:21:53.087Z,22.28
2023-03-16T23:24:19.556Z,22.26
2023-03-16T23:26:45.876Z,22.30
2023-03-16T23:29:12.176Z,22.30
2023-03-16T23:31:38.546Z,22.24
2023-03-16T23:34:04.905Z,22.34
2023-03-16T23:36:31.284Z,22.33
2023-03-16T23:38:57.587Z,22.28
2023-03-16T23:41:23.967Z,22.28
2023-03-16T23:43:50.389Z,22.26
2023-03-16T23:46:16.845Z,22.33
2023-03-16T23:48:43.202Z,22.27
2023-03-16T23:51:09.521Z,22.28
2023-03-16T23:53:35.851Z,22.25
2023-03-16T23:56:02.180Z,22.21
2023-03-16T23:58:28.547Z,22.22
